Time;durP1;ratioP1;P1;durP2;ratioP2;P2;SDS_P1;SDS_P2;PMS_P1;PMS_P2;Temp;Humidity;BMP_temperature;BMP_pressure;BME280_temperature;BME280_humidity;BME280_pressure;Samples;Min_cycle;Max_cycle;Signal;HPM_P1;HPM_P2
2023/03/17 00:01:10;;;;;;;7.15;4.72;;;;;;;25.00;33.17;100512.66;4468407;32;35729;-60
2023/03/17 00:03:40;;;;;;;7.22;4.60;;;;;;;24.98;33.20;100512.03;4454542;32;33684;-56
2023/03/17 00:06:20;;;;;;;8.45;5.07;;;;;;;24.97;33.28;100513.09;4454548;32;33351;-57
2023/03/17 00:08:48;;;;;;;;;;;;;;;24.97;33.38;100513.09;4454580;32;33416;-54
2023/03/17 00:11:16;;;;;;;8.30;4.90;;;;;;;25.07;33.23;100513.47;4468565;32;34738;-58
2023/03/17 00:13:43;;;;;;;8.93;4.65;;;;;;;24.97;33.24;100507.63;4468179;32;33810;-56
2023/03/17 00:16:14;;;;;;;8.38;5.00;;;;;;;24.94;33.41;100508.88;4468547;32;34246;-60
2023/03/17 00:18:43;;;;;;;7.85;4.82;;;;;;;24.91;33.47;100514.81;4454234;32;33768;-60
2023/03/17 00:21:15;;;;;;;9.30;4.20;;;;;;;24.91;33.50;100511.25;4441528;32;34742;-60
2023/03/17 00:23:44;;;;;;;8.40;5.00;;;;;;;24.90;33.53;100506.81;4454333;32;34487;-61
2023/03/17 00:26:13;;;;;;;8.07;4.80;;;;;;;24.89;33.59;100505.97;4441694;32;32959;-59
2023/03/17 00:28:42;;;;;;;9.00;4.12;;;;;;;24.88;33.59;100506.22;4468276;32;34589;-56
2023/03/17 00:31:39;;;;;;;7.18;4.32;;;;;;;24.88;33.64;100506.22;4468084;32;33788;-60
2023/03/17 00:34:11;;;;;;;8.73;4.75;;;;;;;24.90;33.75;100512.28;4451974;32;33954;-57
2023/03/17 00:36:39;;;;;;;8.75;4.60;;;;;;;24.85;33.77;100495.72;4441810;32;34008;-57
2023/03/17 00:39:11;;;;;;;9.30;4.97;;;;;;;24.83;33.80;100503.31;4453925;32;34360;-57
2023/03/17 00:41:39;;;;;;;7.55;4.65;;;;;;;24.82;33.97;100504.38;4454181;32;33693;-53
2023/03/17 00:44:06;;;;;;;10.07;4.75;;;;;;;24.80;34.02;100503.72;4453916;32;33897;-59
2023/03/17 00:46:34;;;;;;;13.40;4.68;;;;;;;24.80;34.07;100492.81;4453883;32;33471;-57
2023/03/17 00:49:09;;;;;;;7.55;4.25;;;;;;;24.78;34.03;100494.94;4441381;32;34954;-57
2023/03/17 00:51:39;;;;;;;8.30;4.62;;;;;;;24.76;34.04;100489.72;4454133;32;34014;-57
2023/03/17 00:54:09;;;;;;;6.93;3.92;;;;;;;24.77;34.07;100487.81;4468018;32;34438;-55
2023/03/17 00:56:37;;;;;;;7.50;4.65;;;;;;;24.75;33.96;100479.81;4467790;32;33030;-55
2023/03/17 00:59:08;;;;;;;7.32;4.00;;;;;;;24.77;33.93;100479.62;4441328;32;34673;-59
2023/03/17 01:01:36;;;;;;;7.40;4.10;;;;;;;24.76;33.90;100475.19;4446700;32;34757;-60
2023/03/17 01:04:03;;;;;;;8.35;4.37;;;;;;;24.75;33.90;100485.28;4473164;32;33519;-54
2023/03/17 01:06:31;;;;;;;6.75;4.10;;;;;;;24.74;34.03;100488.25;4472972;32;33883;-58
2023/03/17 01:08:59;;;;;;;14.00;4.80;;;;;;;24.73;34.06;100486.56;4472639;32;33747;-61
2023/03/17 01:11:26;;;;;;;9.13;4.12;;;;;;;24.72;34.02;100483.00;4472957;32;33997;-58
2023/03/17 01:13:54;;;;;;;10.75;4.47;;;;;;;24.71;34.06;100489.50;4472974;32;34124;-60
2023/03/17 01:16:22;;;;;;;7.80;3.90;;;;;;;24.71;34.07;100485.94;4472892;32;33389;-55
2023/03/17 01:18:49;;;;;;;9.13;4.05;;;;;;;24.69;34.07;100487.00;4472810;32;34109;-56
2023/03/17 01:21:17;;;;;;;8.13;4.12;;;;;;;24.71;34.09;100494.13;4472587;32;33923;-60
2023/03/17 01:23:46;;;;;;;6.10;3.75;;;;;;;24.69;34.09;100488.91;4472831;32;34690;-55
2023/03/17 01:26:13;;;;;;;6.47;3.85;;;;;;;24.68;34.09;100496.25;4472615;32;33447;-61
2023/03/17 01:28:41;;;;;;;7.47;4.18;;;;;;;24.66;34.09;100486.59;4458478;32;33868;-55
2023/03/17 01:31:09;;;;;;;8.32;4.32;;;;;;;24.65;34.19;100493.09;4472704;32;34079;-60
2023/03/17 01:33:36;;;;;;;9.40;4.30;;;;;;;24.65;34.21;100493.94;4472484;32;34574;-60
2023/03/17 01:36:04;;;;;;;6.40;4.07;;;;;;;24.63;34.25;100493.34;4458525;32;33360;-59
2023/03/17 01:38:32;;;;;;;6.93;3.97;;;;;;;24.62;34.23;100486.22;4472322;32;34688;-58
2023/03/17 01:41:00;;;;;;;6.22;4.00;;;;;;;24.62;34.25;100491.66;4458290;32;33348;-59
2023/03/17 01:43:28;;;;;;;8.50;4.10;;;;;;;24.61;34.29;100489.97;4458375;32;34367;-56
2023/03/17 01:46:19;;;;;;;7.00;4.37;;;;;;;24.59;34.34;100488.53;4458325;32;33164;-58
2023/03/17 01:49:04;;;;;;;6.50;3.95;;;;;;;24.60;34.37;100490.19;4472370;32;34935;-57
2023/03/17 01:52:20;;;;;;;6.22;3.60;;;;;;;24.58;34.37;100492.31;4472332;32;33535;-60
2023/03/17 01:54:57;;;;;;;8.20;3.80;;;;;;;24.59;34.44;100496.72;4456102;32;33691;-61
2023/03/17 01:57:44;;;;;;;6.22;3.72;;;;;;;24.56;34.46;100489.78;4467353;32;33467;-60
2023/03/17 02:00:16;;;;;;;5.97;3.67;;;;;;;24.54;34.46;100483.72;4452484;32;33678;-58
2023/03/17 02:02:46;;;;;;;7.30;4.03;;;;;;;24.53;34.43;100471.16;4459136;32;33819;-59
2023/03/17 02:05:16;;;;;;;7.07;4.00;;;;;;;24.52;34.44;100465.88;4456409;32;34510;-61
2023/03/17 02:07:45;;;;;;;5.80;4.03;;;;;;;24.50;34.41;100471.56;4455389;32;34153;-57
2023/03/17 02:10:13;;;;;;;10.25;4.25;;;;;;;24.50;34.44;100485.22;4456431;32;34676;-60
2023/03/17 02:12:41;;;;;;;6.15;3.97;;;;;;;24.49;34.42;100488.16;4451862;32;34522;-60
2023/03/17 02:15:09;;;;;;;5.95;3.58;;;;;;;24.48;34.43;100495.53;4439700;32;33642;-59
2023/03/17 02:17:38;;;;;;;6.40;3.45;;;;;;;24.48;34.51;100502.84;4453581;32;34252;-59
2023/03/17 02:20:14;;;;;;;8.25;4.03;;;;;;;24.48;34.45;100513.75;4439587;32;33991;-61
2023/03/17 02:22:49;;;;;;;7.57;4.28;;;;;;;24.49;34.51;100515.44;4453762;32;33994;-60
2023/03/17 02:25:18;;;;;;;7.37;4.03;;;;;;;24.47;34.46;100517.53;4453421;32;34536;-61
2023/03/17 02:27:48;;;;;;;5.57;3.47;;;;;;;24.46;34.49;100518.59;4439681;32;33409;-56
2023/03/17 02:30:19;;;;;;;5.85;3.45;;;;;;;24.47;34.46;100523.84;4427610;32;34683;-59
2023/03/17 02:32:47;;;;;;;6.20;3.73;;;;;;;24.45;34.47;100531.41;4453492;32;34766;-59
2023/03/17 02:35:15;;;;;;;7.40;3.78;;;;;;;24.46;34.45;100534.97;4453570;32;33793;-60
2023/03/17 02:37:44;;;;;;;5.90;3.70;;;;;;;24.44;34.49;100529.75;4439353;32;33029;-60
2023/03/17 02:40:13;;;;;;;5.75;3.65;;;;;;;24.43;34.46;100533.50;4427330;32;34648;-60
2023/03/17 02:42:40;;;;;;;9.43;3.53;;;;;;;24.43;34.44;100533.50;4457023;32;33424;-60
2023/03/17 02:45:10;;;;;;;11.30;3.90;;;;;;;24.42;34.52;100535.37;4454540;32;32736;-60
2023/03/17 02:47:38;;;;;;;7.50;3.53;;;;;;;24.42;34.56;100523.62;4468961;32;34223;-61
2023/03/17 02:50:06;;;;;;;6.35;3.70;;;;;;;24.40;34.60;100518.41;4454769;32;33942;-60
2023/03/17 02:52:33;;;;;;;5.80;3.40;;;;;;;24.40;34.63;100514.84;4455069;32;33780;-61
2023/03/17 02:55:01;;;;;;;6.53;3.20;;;;;;;24.38;34.63;100509.59;4468879;32;33803;-60
2023/03/17 02:57:28;;;;;;;6.28;3.58;;;;;;;24.36;34.64;100517.16;4469044;32;34470;-61
2023/03/17 02:59:56;;;;;;;7.00;3.47;;;;;;;24.37;34.66;100515.28;4468769;32;34620;-60
2023/03/17 03:02:24;;;;;;;5.95;3.28;;;;;;;24.35;34.68;100514.63;4468928;32;34706;-61
2023/03/17 03:04:52;;;;;;;6.57;3.72;;;;;;;24.34;34.68;100518.37;4469010;32;33927;-61
2023/03/17 03:07:19;;;;;;;7.03;3.80;;;;;;;24.34;34.70;100529.28;4468686;32;34227;-60
2023/03/17 03:09:47;;;;;;;5.75;3.53;;;;;;;24.33;34.70;100528.47;4469114;32;33503;-60
2023/03/17 03:12:15;;;;;;;7.18;3.85;;;;;;;24.31;34.72;100525.13;4468838;32;34119;-61
2023/03/17 03:14:42;;;;;;;7.12;3.37;;;;;;;24.33;34.70;100522.16;4468731;32;34573;-59
2023/03/17 03:17:10;;;;;;;7.03;3.75;;;;;;;24.31;34.70;100522.41;4468914;32;33296;-58
2023/03/17 03:19:38;;;;;;;7.97;3.90;;;;;;;24.30;34.68;100518.00;4468915;32;33599;-62
2023/03/17 03:22:05;;;;;;;7.15;3.75;;;;;;;24.28;34.76;100509.19;4468483;32;33840;-58
2023/03/17 03:24:33;;;;;;;6.80;3.37;;;;;;;24.29;34.75;100515.47;4467714;32;33924;-59
2023/03/17 03:27:01;;;;;;;7.37;3.95;;;;;;;24.27;34.78;100521.16;4468664;32;33376;-60
2023/03/17 03:29:28;;;;;;;7.40;3.60;;;;;;;24.27;34.79;100512.13;4468471;32;33680;-61
2023/03/17 03:31:56;;;;;;;6.28;3.53;;;;;;;24.26;34.80;100507.75;4468652;32;33651;-61
2023/03/17 03:34:23;;;;;;;6.72;3.70;;;;;;;24.25;34.85;100515.09;4469034;32;34654;-62
2023/03/17 03:36:51;;;;;;;8.07;3.35;;;;;;;24.25;34.90;100512.34;4468510;32;33310;-61
2023/03/17 03:39:18;;;;;;;7.68;3.45;;;;;;;24.24;34.90;100504.38;4468773;32;33645;-60
2023/03/17 03:41:46;;;;;;;5.80;3.20;;;;;;;24.22;34.90;100511.94;4454570;32;33570;-60
2023/03/17 03:44:13;;;;;;;8.65;3.47;;;;;;;24.22;34.90;100515.50;4468484;32;34573;-61
2023/03/17 03:46:41;;;;;;;6.72;3.30;;;;;;;24.23;34.91;100511.72;4468643;32;33493;-60
2023/03/17 03:49:08;;;;;;;6.43;3.40;;;;;;;24.23;34.91;100513.62;4468607;32;33959;-61
2023/03/17 03:51:36;;;;;;;8.98;3.55;;;;;;;24.21;34.90;100513.84;4468268;32;34634;-59
2023/03/17 03:54:04;;;;;;;6.00;3.50;;;;;;;24.21;34.97;100518.47;4468735;32;34492;-58
2023/03/17 03:56:31;;;;;;;6.60;2.90;;;;;;;24.21;35.00;100510.28;4468461;32;33416;-61
2023/03/17 03:58:59;;;;;;;6.05;3.35;;;;;;;24.19;35.00;100505.00;4454352;32;33911;-61
2023/03/17 04:01:27;;;;;;;7.53;3.40;;;;;;;24.18;35.02;100508.81;4468454;32;34060;-61
2023/03/17 04:03:54;;;;;;;6.22;3.67;;;;;;;24.17;35.02;100501.69;4468553;32;33710;-61
2023/03/17 04:06:22;;;;;;;7.15;3.60;;;;;;;24.16;35.01;100503.56;4468408;32;32919;-60
2023/03/17 04:08:49;;;;;;;9.15;3.50;;;;;;;24.15;35.08;100501.03;4468700;32;33559;-59
2023/03/17 04:11:17;;;;;;;5.65;3.35;;;;;;;24.16;35.07;100500.00;4468352;32;33727;-61
2023/03/17 04:13:45;;;;;;;6.18;3.50;;;;;;;24.16;35.07;100495.38;4458051;32;33267;-59
2023/03/17 04:16:12;;;;;;;5.75;3.20;;;;;;;24.14;34.94;100500.22;4477038;32;34278;-61
2023/03/17 04:18:40;;;;;;;6.95;3.10;;;;;;;24.15;34.34;100501.03;4479556;32;34699;-60
2023/03/17 04:21:08;;;;;;;7.40;3.50;;;;;;;24.14;34.50;100493.91;4452064;32;33999;-58
2023/03/17 04:23:35;;;;;;;5.00;3.03;;;;;;;24.12;34.62;100493.31;4452151;32;34499;-60
2023/03/17 04:26:03;;;;;;;6.12;2.97;;;;;;;24.10;34.57;100495.41;4452232;32;33352;-60
2023/03/17 04:28:30;;;;;;;5.50;3.47;;;;;;;24.10;34.55;100498.97;4451995;32;34369;-61
2023/03/17 04:30:58;;;;;;;8.20;3.75;;;;;;;24.10;34.59;100500.84;4453193;32;34329;-61
2023/03/17 04:33:26;;;;;;;8.05;3.28;;;;;;;24.08;34.63;100503.78;4467007;32;33525;-61
2023/03/17 04:35:53;;;;;;;6.93;3.53;;;;;;;24.08;34.62;100492.88;4466708;32;33414;-61
2023/03/17 04:38:21;;;;;;;6.43;3.50;;;;;;;24.09;34.65;100504.63;4467866;32;33857;-60
2023/03/17 04:40:49;;;;;;;12.07;3.58;;;;;;;24.07;34.65;100504.84;4467249;32;33708;-60
2023/03/17 04:43:17;;;;;;;6.97;3.40;;;;;;;24.06;34.69;100500.47;4459981;32;33917;-60
2023/03/17 04:45:44;;;;;;;5.60;3.20;;;;;;;24.08;34.68;100505.69;4452009;32;33177;-61
2023/03/17 04:48:12;;;;;;;6.65;3.45;;;;;;;24.07;34.68;100507.59;4451746;32;33495;-59
2023/03/17 04:50:41;;;;;;;5.90;3.22;;;;;;;24.07;34.72;100509.47;4451532;32;33905;-60
2023/03/17 04:53:08;;;;;;;6.35;3.03;;;;;;;24.06;34.75;100511.37;4451895;32;34548;-60
2023/03/17 04:55:36;;;;;;;6.50;3.12;;;;;;;24.07;34.74;100514.94;4451812;32;33488;-61
2023/03/17 04:58:04;;;;;;;4.72;3.10;;;;;;;24.06;34.72;100521.41;4451919;32;34579;-60
2023/03/17 05:00:37;;;;;;;8.27;3.55;;;;;;;24.06;34.77;100522.28;4450852;32;32876;-60
2023/03/17 05:03:08;;;;;;;6.00;3.50;;;;;;;24.06;34.75;100529.59;4452087;32;33482;-57
2023/03/17 05:05:52;;;;;;;6.53;3.20;;;;;;;24.05;33.38;100527.91;4440649;32;34176;-60
2023/03/17 05:08:20;;;;;;;5.68;3.65;;;;;;;24.03;32.62;100517.22;4452002;32;33949;-60
2023/03/17 05:10:48;;;;;;;6.68;3.50;;;;;;;24.02;32.67;100522.91;4452353;32;33512;-58
2023/03/17 05:13:15;;;;;;;7.10;3.25;;;;;;;23.98;32.76;100525.22;4452392;32;33492;-61
2023/03/17 05:15:45;;;;;;;5.25;2.90;;;;;;;23.95;32.85;100530.25;4451972;32;33329;-59
2023/03/17 05:18:14;;;;;;;6.00;3.10;;;;;;;23.93;32.90;100525.84;4452162;32;34713;-60
2023/03/17 05:20:41;;;;;;;10.38;3.30;;;;;;;23.92;32.88;100531.50;4451884;32;34036;-56
2023/03/17 05:23:09;;;;;;;9.80;3.65;;;;;;;23.89;32.89;100531.94;4437965;32;33891;-60
2023/03/17 05:25:36;;;;;;;10.25;3.50;;;;;;;23.86;32.91;100538.63;4437988;32;34292;-59
2023/03/17 05:28:04;;;;;;;17.08;3.92;;;;;;;23.84;32.97;100537.19;4451753;32;33170;-59
2023/03/17 05:30:32;;;;;;;14.23;3.22;;;;;;;23.82;33.10;100531.94;4451604;32;35012;-58
2023/03/17 05:33:00;;;;;;;8.77;3.35;;;;;;;23.81;33.10;100529.44;4451300;32;34667;-60
2023/03/17 05:35:27;;;;;;;9.55;3.62;;;;;;;23.79;33.16;100532.37;4449867;32;34172;-60
2023/03/17 05:37:55;;;;;;;7.72;3.70;;;;;;;23.78;33.18;100536.16;4449588;32;35336;-60
2023/03/17 05:40:23;;;;;;;6.78;3.53;;;;;;;23.77;33.24;100541.78;4449883;32;33619;-58
2023/03/17 05:42:50;;;;;;;9.75;3.45;;;;;;;23.76;33.30;100546.41;4454428;32;35058;-58
2023/03/17 05:45:18;;;;;;;9.32;3.72;;;;;;;23.74;33.32;100540.34;4450892;32;33813;-60
2023/03/17 05:47:46;;;;;;;6.15;3.42;;;;;;;23.73;33.33;100533.19;4466936;32;34788;-54
2023/03/17 05:50:13;;;;;;;7.10;3.17;;;;;;;23.73;33.37;100526.91;4467811;32;34518;-60
2023/03/17 05:52:42;;;;;;;10.90;3.15;;;;;;;23.72;33.39;100533.41;4469107;32;33464;-59
2023/03/17 05:55:09;;;;;;;44.78;4.60;;;;;;;23.70;33.40;100525.47;4455584;32;33129;-60
2023/03/17 05:57:37;;;;;;;10.13;3.60;;;;;;;23.69;33.42;100529.25;4469425;32;34718;-59
2023/03/17 06:00:06;;;;;;;8.35;3.45;;;;;;;23.68;33.46;100533.00;4461290;32;33899;-61
2023/03/17 06:02:34;;;;;;;6.32;3.00;;;;;;;23.68;33.46;100531.09;4469296;32;33683;-60
2023/03/17 06:05:02;;;;;;;5.82;2.92;;;;;;;23.67;33.44;100534.06;4469458;32;34076;-60
2023/03/17 06:07:29;;;;;;;5.57;3.40;;;;;;;23.66;33.44;100526.94;4469218;32;34016;-58
2023/03/17 06:10:17;;;;;;;6.22;3.05;;;;;;;23.65;33.45;100525.25;4469425;32;33901;-60
2023/03/17 06:12:45;;;;;;;7.95;3.22;;;;;;;23.65;33.43;100526.09;4469078;32;33898;-53
2023/03/17 06:15:12;;;;;;;6.78;3.40;;;;;;;23.63;33.44;100528.16;4469246;32;32894;-60
2023/03/17 06:17:40;;;;;;;7.65;3.20;;;;;;;23.63;33.44;100536.31;4469291;32;33685;-57
2023/03/17 06:20:08;;;;;;;6.55;3.10;;;;;;;23.62;33.41;100536.53;4469318;32;34590;-59
2023/03/17 06:22:36;;;;;;;8.55;3.33;;;;;;;23.60;33.41;100536.75;4455229;32;34012;-52
2023/03/17 06:25:04;;;;;;;8.23;3.35;;;;;;;23.61;33.36;100534.88;4469168;32;33987;-59
2023/03/17 06:27:31;;;;;;;7.80;3.65;;;;;;;23.59;33.37;100542.41;4454742;32;34228;-60
2023/03/17 06:29:59;;;;;;;7.10;3.42;;;;;;;23.58;33.37;100543.44;4469166;32;34001;-52
2023/03/17 06:32:27;;;;;;;6.82;3.55;;;;;;;23.57;33.33;100547.22;4469008;32;33774;-58
2023/03/17 06:34:54;;;;;;;8.40;3.75;;;;;;;23.55;33.35;100552.91;4454563;32;33722;-60
2023/03/17 06:37:22;;;;;;;5.40;3.35;;;;;;;23.54;33.33;100556.66;4453636;32;34302;-59
2023/03/17 06:39:50;;;;;;;6.53;3.03;;;;;;;23.53;33.29;100552.25;4453429;32;33985;-59
2023/03/17 06:42:18;;;;;;;7.30;3.70;;;;;;;23.53;33.29;100565.03;4454473;32;33623;-59
2023/03/17 06:44:45;;;;;;;7.57;3.20;;;;;;;23.52;33.31;100561.47;4468862;32;33340;-60
2023/03/17 06:47:13;;;;;;;8.20;3.37;;;;;;;23.50;33.28;100565.44;4468976;32;33912;-57
2023/03/17 06:49:41;;;;;;;5.50;3.50;;;;;;;23.50;33.29;100565.44;4469348;32;33542;-56
2023/03/17 06:52:08;;;;;;;6.00;3.42;;;;;;;23.49;33.28;100569.22;4468928;32;34520;-61
2023/03/17 06:54:36;;;;;;;18.65;3.28;;;;;;;23.49;33.28;100572.78;4468967;32;33361;-52
2023/03/17 06:57:03;;;;;;;5.30;3.17;;;;;;;23.47;33.26;100571.31;4468751;32;34078;-59
2023/03/17 06:59:31;;;;;;;7.00;3.60;;;;;;;23.46;33.25;100570.50;4469000;32;33915;-58
2023/03/17 07:01:59;;;;;;;6.07;3.37;;;;;;;23.46;33.25;100573.22;4468876;32;33870;-59
2023/03/17 07:04:26;;;;;;;6.97;3.12;;;;;;;23.45;33.26;100574.25;4469004;32;33248;-54
2023/03/17 07:06:54;;;;;;;6.40;3.33;;;;;;;23.43;33.25;100570.91;4454529;32;33928;-60
2023/03/17 07:09:22;;;;;;;5.93;3.42;;;;;;;23.42;33.27;100574.66;4468658;32;34836;-60
2023/03/17 07:11:49;;;;;;;7.25;3.75;;;;;;;23.42;33.30;100580.13;4468860;32;34569;-61
2023/03/17 07:14:17;;;;;;;6.93;3.47;;;;;;;23.41;33.37;100573.00;4453532;32;32000;-60
2023/03/17 07:16:46;;;;;;;5.78;3.22;;;;;;;23.41;33.42;100590.19;4453071;32;34603;-58
2023/03/17 07:19:13;;;;;;;6.10;3.37;;;;;;;23.42;33.40;100591.00;4453208;32;33678;-59
2023/03/17 07:21:41;;;;;;;8.02;3.95;;;;;;;23.42;33.41;100588.28;4452980;32;34550;-58
2023/03/17 07:24:10;;;;;;;5.80;3.20;;;;;;;23.43;33.44;100585.34;4463652;32;33157;-56
2023/03/17 07:26:37;;;;;;;5.43;3.20;;;;;;;23.43;33.42;100588.06;4442186;32;33874;-56
2023/03/17 07:29:05;;;;;;;6.53;3.10;;;;;;;23.45;33.45;100590.56;4461523;32;34177;-62
2023/03/17 07:31:33;;;;;;;6.07;3.33;;;;;;;23.46;33.46;100584.09;4463025;32;34014;-60
2023/03/17 07:34:00;;;;;;;6.25;3.35;;;;;;;23.46;33.44;100588.72;4452937;32;33379;-61
2023/03/17 07:36:28;;;;;;;5.87;3.03;;;;;;;23.47;33.45;100591.22;4426346;32;32797;-59
2023/03/17 07:38:56;;;;;;;5.70;3.50;;;;;;;23.47;33.45;100585.78;4453207;32;33700;-58
2023/03/17 07:41:23;;;;;;;5.32;2.97;;;;;;;23.48;33.45;100598.34;4452968;32;33846;-59
2023/03/17 07:43:51;;;;;;;5.12;3.12;;;;;;;23.49;33.46;100601.91;4464228;32;33355;-59
2023/03/17 07:46:19;;;;;;;6.60;3.45;;;;;;;23.49;33.44;100602.75;4468530;32;33780;-62
2023/03/17 07:48:47;;;;;;;6.75;3.22;;;;;;;23.49;33.42;100602.75;4468596;32;33562;-63
2023/03/17 07:51:15;;;;;;;5.25;3.00;;;;;;;23.50;33.43;100600.84;4468640;32;33792;-62
2023/03/17 07:53:44;;;;;;;8.52;3.40;;;;;;;23.50;33.41;100609.87;4441566;32;33380;-63
2023/03/17 07:56:12;;;;;;;7.15;3.10;;;;;;;23.51;33.39;100602.56;4454633;32;34429;-62
2023/03/17 07:58:40;;;;;;;5.82;3.25;;;;;;;23.52;33.37;100607.78;4466982;32;33545;-63
2023/03/17 08:01:08;;;;;;;5.47;3.10;;;;;;;23.53;33.36;100605.91;4468285;32;34662;-62
2023/03/17 08:03:36;;;;;;;4.95;2.87;;;;;;;23.54;33.35;100608.41;4468564;32;32875;-61
2023/03/17 08:06:07;;;;;;;6.28;3.33;;;;;;;23.54;33.33;100602.94;4468550;32;33770;-63
2023/03/17 08:08:35;;;;;;;8.00;3.20;;;;;;;23.54;33.32;100592.06;4468056;32;33658;-63
2023/03/17 08:11:04;;;;;;;6.95;3.15;;;;;;;23.56;33.33;100598.16;4462632;32;33862;-58
2023/03/17 08:13:31;;;;;;;5.30;2.90;;;;;;;23.57;33.34;100593.53;4440962;32;33942;-60
2023/03/17 08:15:59;;;;;;;4.85;2.83;;;;;;;23.57;33.33;100590.81;4458169;32;33552;-60
2023/03/17 08:18:27;;;;;;;4.72;2.72;;;;;;;23.58;33.35;100593.31;4452679;32;34661;-62
2023/03/17 08:20:54;;;;;;;5.35;3.00;;;;;;;23.59;33.33;100595.00;4452898;32;33956;-59
2023/03/17 08:23:22;;;;;;;5.75;3.42;;;;;;;23.59;33.33;100585.97;4453489;32;34501;-59
2023/03/17 08:25:54;;;;;;;5.70;2.95;;;;;;;23.60;33.33;100584.97;4457312;32;33178;-59
2023/03/17 08:28:21;;;;;;;4.87;2.80;;;;;;;23.60;33.37;100579.50;4452708;32;34031;-57
2023/03/17 08:30:49;;;;;;;4.60;2.80;;;;;;;23.60;33.35;100591.25;4456668;32;33903;-59
2023/03/17 08:33:17;;;;;;;6.72;3.28;;;;;;;23.61;33.37;100584.75;4462749;32;34317;-63
2023/03/17 08:35:44;;;;;;;7.10;3.12;;;;;;;23.62;33.42;100588.31;4449634;32;34758;-63
2023/03/17 08:38:12;;;;;;;7.50;3.12;;;;;;;23.62;33.49;100591.84;4458748;32;33625;-59
2023/03/17 08:40:40;;;;;;;8.32;3.65;;;;;;;23.63;33.54;100590.81;4452333;32;33917;-62
2023/03/17 08:43:07;;;;;;;7.82;3.53;;;;;;;23.63;33.54;100588.09;4467547;32;34433;-63
2023/03/17 08:45:35;;;;;;;6.40;3.78;;;;;;;23.63;33.66;100582.63;4466143;32;34271;-61
2023/03/17 08:48:03;;;;;;;7.22;3.67;;;;;;;23.64;33.75;100583.50;4448795;32;33780;-58
2023/03/17 08:50:30;;;;;;;8.80;3.00;;;;;;;23.64;33.62;100583.50;4455772;32;33466;-60
2023/03/17 08:52:58;;;;;;;9.50;3.70;;;;;;;23.64;33.43;100583.50;4457487;32;34286;-62
2023/03/17 08:55:26;;;;;;;12.68;3.80;;;;;;;23.67;33.38;100585.81;4455373;32;33750;-57
2023/03/17 08:57:53;;;;;;;7.93;3.75;;;;;;;23.66;33.43;100573.25;4447068;32;34895;-63
2023/03/17 09:00:21;;;;;;;8.50;3.62;;;;;;;23.66;33.46;100579.53;4459410;32;34172;-63
2023/03/17 09:02:49;;;;;;;7.85;3.37;;;;;;;23.68;33.48;100587.50;4467853;32;33315;-63
2023/03/17 09:05:17;;;;;;;8.18;4.10;;;;;;;23.69;33.50;100591.91;4459857;32;33970;-63
2023/03/17 09:07:44;;;;;;;11.80;3.50;;;;;;;23.70;33.53;100592.75;4466786;32;34003;-62
2023/03/17 09:10:13;;;;;;;8.38;3.75;;;;;;;23.70;33.57;100584.56;4461574;32;33652;-63
2023/03/17 09:12:41;;;;;;;7.03;3.45;;;;;;;23.70;33.58;100582.69;4457993;32;32961;-61
2023/03/17 09:15:10;;;;;;;8.63;3.87;;;;;;;23.72;33.60;100587.91;4459603;32;33877;-59
2023/03/17 09:17:38;;;;;;;9.18;3.90;;;;;;;23.72;33.62;100586.03;4439562;32;33924;-62
2023/03/17 09:20:06;;;;;;;7.20;3.30;;;;;;;23.73;33.61;100587.69;4451506;32;34487;-62
2023/03/17 09:22:34;;;;;;;7.30;3.65;;;;;;;23.75;33.61;100568.44;4454800;32;34101;-60
2023/03/17 09:25:02;;;;;;;8.27;3.55;;;;;;;23.76;33.63;100568.22;4467313;32;33680;-61
2023/03/17 09:27:29;;;;;;;7.62;4.05;;;;;;;23.77;33.64;100564.44;4453374;32;33937;-61
2023/03/17 09:29:57;;;;;;;9.18;3.97;;;;;;;23.76;33.62;100570.94;4460412;32;33827;-59
2023/03/17 09:32:25;;;;;;;7.80;3.45;;;;;;;23.77;33.60;100567.16;4460954;32;33821;-60
2023/03/17 09:34:52;;;;;;;9.60;4.03;;;;;;;23.78;33.62;100573.44;4465074;32;34343;-61
2023/03/17 09:37:20;;;;;;;6.80;3.22;;;;;;;23.77;33.50;100569.88;4469322;32;33702;-60
2023/03/17 09:39:48;;;;;;;8.32;3.70;;;;;;;23.77;33.38;100563.59;4469479;32;33619;-62
2023/03/17 09:42:35;;;;;;;10.68;3.45;;;;;;;23.75;33.22;100566.53;4455114;32;33137;-61
2023/03/17 09:45:12;;;;;;;8.55;3.28;;;;;;;23.77;33.12;100563.59;4469566;32;33504;-62
2023/03/17 09:47:51;;;;;;;8.35;3.15;;;;;;;23.75;33.02;100560.25;4469316;32;34123;-63
2023/03/17 09:50:27;;;;;;;7.45;3.28;;;;;;;23.74;33.01;100550.41;4469383;32;33500;-63
2023/03/17 09:52:56;;;;;;;7.75;3.45;;;;;;;23.77;32.97;100549.97;4442332;32;33420;-63
2023/03/17 09:55:28;;;;;;;6.85;3.30;;;;;;;23.75;33.02;100557.53;4442646;32;34821;-61
2023/03/17 09:57:57;;;;;;;6.40;3.70;;;;;;;23.73;33.07;100555.00;4454978;32;33965;-62
2023/03/17 10:00:28;;;;;;;7.87;3.30;;;;;;;23.74;33.05;100544.97;4439557;32;34217;-62
2023/03/17 10:02:56;;;;;;;10.77;3.35;;;;;;;23.74;33.06;100550.41;4456065;32;33065;-62
2023/03/17 10:05:26;;;;;;;6.10;3.10;;;;;;;23.74;33.09;100542.25;4453595;32;33964;-63
2023/03/17 10:07:57;;;;;;;7.20;3.10;;;;;;;23.72;33.13;100545.16;4449586;32;33900;-60
2023/03/17 10:10:29;;;;;;;5.93;3.10;;;;;;;23.73;33.14;100538.66;4453246;32;34576;-57
2023/03/17 10:13:02;;;;;;;6.53;3.30;;;;;;;23.71;33.19;100548.09;4440277;32;33856;-63
2023/03/17 10:15:35;;;;;;;5.95;2.72;;;;;;;23.71;33.27;100543.47;4453343;32;34826;-62
2023/03/17 10:18:11;;;;;;;5.65;2.83;;;;;;;23.70;33.29;100550.00;4439918;32;34009;-62
2023/03/17 10:20:46;;;;;;;10.20;3.10;;;;;;;23.71;33.32;100548.09;4439411;32;33672;-60
2023/03/17 10:23:18;;;;;;;6.65;3.08;;;;;;;23.70;33.32;100532.81;4439721;32;33612;-63
2023/03/17 10:25:47;;;;;;;9.90;3.25;;;;;;;23.68;33.37;100527.53;4439550;32;33651;-62
2023/03/17 10:28:23;;;;;;;6.97;3.08;;;;;;;23.67;33.38;100524.00;4452961;32;34612;-61
2023/03/17 10:30:52;;;;;;;6.80;2.78;;;;;;;23.68;33.41;100519.38;4441782;32;34474;-61
2023/03/17 10:33:20;;;;;;;6.25;3.17;;;;;;;23.65;33.44;100523.38;4453406;32;32414;-59
2023/03/17 10:35:47;;;;;;;10.55;3.40;;;;;;;23.65;33.41;100514.38;4468915;32;33393;-61
2023/03/17 10:38:21;;;;;;;14.27;3.53;;;;;;;23.64;33.40;100518.13;4468500;32;33575;-58
2023/03/17 10:40:56;;;;;;;7.93;3.25;;;;;;;23.64;33.43;100515.37;4460589;32;34305;-61
2023/03/17 10:43:29;;;;;;;17.50;4.10;;;;;;;23.63;33.40;100508.25;4452222;32;33075;-61
2023/03/17 10:45:58;;;;;;;10.60;3.92;;;;;;;23.61;33.44;100508.47;4451819;32;34206;-58
2023/03/17 10:48:27;;;;;;;16.40;4.12;;;;;;;23.61;33.52;100508.47;4452576;32;33684;-61
2023/03/17 10:50:57;;;;;;;17.23;3.97;;;;;;;23.63;33.48;100510.97;4452164;32;33746;-62
2023/03/17 10:53:28;;;;;;;18.73;4.32;;;;;;;23.62;33.52;100510.12;4453166;32;32973;-63
2023/03/17 10:56:07;;;;;;;26.62;3.58;;;;;;;23.70;33.59;100503.66;4453168;32;34441;-61
2023/03/17 10:58:47;;;;;;;16.42;3.70;;;;;;;23.75;33.75;100503.88;4453155;32;34866;-61
2023/03/17 11:01:18;;;;;;;14.85;3.60;;;;;;;23.86;33.84;100503.22;4451969;32;33536;-63
2023/03/17 11:03:46;;;;;;;18.23;3.33;;;;;;;23.93;33.96;100503.22;4452075;32;34202;-61
2023/03/17 11:06:19;;;;;;;14.30;3.25;;;;;;;24.05;33.72;100492.47;4451523;32;33873;-64
2023/03/17 11:08:48;;;;;;;19.77;3.97;;;;;;;24.15;33.79;100498.31;4452022;32;34019;-65
2023/03/17 11:11:23;;;;;;;13.88;3.40;;;;;;;24.20;33.98;100479.41;4458111;32;34733;-63
2023/03/17 11:14:00;;;;;;;12.85;3.92;;;;;;;24.22;33.85;100476.50;4452516;32;33407;-66
2023/03/17 11:16:28;;;;;;;13.60;3.60;;;;;;;24.19;33.74;100464.94;4453442;32;33889;-61
2023/03/17 11:18:57;;;;;;;24.92;4.50;;;;;;;24.21;33.69;100462.03;4446348;32;33885;-63
2023/03/17 11:21:49;;;;;;;24.60;3.70;;;;;;;24.32;33.69;100465.97;4430773;32;34164;-65
2023/03/17 11:24:24;;;;;;;83.95;7.22;;;;;;;24.35;33.83;100471.00;4461685;32;33271;-61
2023/03/17 11:26:57;;;;;;;16.58;3.20;;;;;;;24.22;36.54;100462.84;4439348;32;33646;-63
2023/03/17 11:30:09;;;;;;;15.05;2.80;;;;;;;24.19;34.72;100467.69;4438674;32;33562;-63
2023/03/17 11:33:01;;;;;;;14.02;4.00;;;;;;;24.21;34.13;100472.94;4402783;32;35850;-64
2023/03/17 11:35:53;;;;;;;11.05;3.47;;;;;;;24.13;33.85;100463.09;4456268;32;34147;-60